sensor_id;sensor_type;location;lat;lon;timestamp;pressure;altitude;pressure_sealevel;temperature;humidity
66176;BME280;52977;44.816;20.538;2023-04-03T00:01:19;99225.44;;;10.72;100.00
66176;BME280;52977;44.816;20.538;2023-04-03T00:03:46;99309.41;;;11.30;100.00
66176;BME280;52977;44.816;20.538;2023-04-03T00:06:12;99275.44;;;10.85;100.00
66176;BME280;52977;44.816;20.538;2023-04-03T00:08:39;99319.25;;;10.89;100.00
66176;BME280;52977;44.816;20.538;2023-04-03T00:11:06;99318.25;;;10.93;100.00
66176;BME280;52977;44.816;20.538;2023-04-03T00:13:33;99321.25;;;10.80;100.00
66176;BME280;52977;44.816;20.538;2023-04-03T00:16:00;99312.13;;;10.75;100.00
66176;BME280;52977;44.816;20.538;2023-04-03T00:18:26;99304.41;;;10.77;100.00
66176;BME280;52977;44.816;20.538;2023-04-03T00:20:52;99304.75;;;10.76;100.00
66176;BME280;52977;44.816;20.538;2023-04-03T00:23:18;99259.00;;;10.22;100.00
66176;BME280;52977;44.816;20.538;2023-04-03T00:25:44;99291.03;;;10.42;100.00
66176;BME280;52977;44.816;20.538;2023-04-03T00:28:10;99310.22;;;10.55;100.00
66176;BME280;52977;44.816;20.538;2023-04-03T00:30:35;99309.53;;;10.58;100.00
66176;BME280;52977;44.816;20.538;2023-04-03T00:33:01;99246.31;;;10.26;100.00
66176;BME280;52977;44.816;20.538;2023-04-03T00:35:27;99304.34;;;10.65;100.00
66176;BME280;52977;44.816;20.538;2023-04-03T00:37:54;99270.72;;;10.52;100.00
66176;BME280;52977;44.816;20.538;2023-04-03T00:40:21;99302.88;;;10.89;100.00
66176;BME280;52977;44.816;20.538;2023-04-03T00:42:49;99307.00;;;10.95;100.00
66176;BME280;52977;44.816;20.538;2023-04-03T00:45:28;99307.94;;;10.78;100.00
66176;BME280;52977;44.816;20.538;2023-04-03T00:47:56;99293.75;;;10.42;100.00
66176;BME280;52977;44.816;20.538;2023-04-03T00:50:27;99299.38;;;10.37;100.00
66176;BME280;52977;44.816;20.538;2023-04-03T00:52:55;99256.75;;;9.94;100.00
66176;BME280;52977;44.816;20.538;2023-04-03T00:55:22;99217.72;;;9.72;100.00
66176;BME280;52977;44.816;20.538;2023-04-03T00:57:49;99304.25;;;10.23;100.00
66176;BME280;52977;44.816;20.538;2023-04-03T01:00:19;99294.38;;;10.09;100.00
66176;BME280;52977;44.816;20.538;2023-04-03T01:02:45;99288.91;;;10.09;100.00
66176;BME280;52977;44.816;20.538;2023-04-03T01:05:15;99307.00;;;10.14;100.00
66176;BME280;52977;44.816;20.538;2023-04-03T01:07:43;99304.19;;;10.02;100.00
66176;BME280;52977;44.816;20.538;2023-04-03T01:10:11;99316.84;;;10.06;100.00
66176;BME280;52977;44.816;20.538;2023-04-03T01:12:42;99310.56;;;10.15;100.00
66176;BME280;52977;44.816;20.538;2023-04-03T01:15:21;99314.34;;;10.22;100.00
66176;BME280;52977;44.816;20.538;2023-04-03T01:17:50;99315.25;;;10.05;100.00
66176;BME280;52977;44.816;20.538;2023-04-03T01:25:56;99239.91;;;9.62;100.00
66176;BME280;52977;44.816;20.538;2023-04-03T01:28:34;99307.69;;;10.11;100.00
66176;BME280;52977;44.816;20.538;2023-04-03T01:31:24;99312.13;;;10.16;100.00
66176;BME280;52977;44.816;20.538;2023-04-03T01:33:54;99310.56;;;10.15;100.00
66176;BME280;52977;44.816;20.538;2023-04-03T01:36:30;99286.63;;;9.82;100.00
66176;BME280;52977;44.816;20.538;2023-04-03T01:38:57;99301.31;;;9.98;100.00
66176;BME280;52977;44.816;20.538;2023-04-03T01:41:25;99247.13;;;9.58;100.00
66176;BME280;52977;44.816;20.538;2023-04-03T01:43:57;99313.06;;;9.90;100.00
66176;BME280;52977;44.816;20.538;2023-04-03T01:46:23;99316.66;;;9.73;100.00
66176;BME280;52977;44.816;20.538;2023-04-03T01:48:50;99330.78;;;9.66;100.00
66176;BME280;52977;44.816;20.538;2023-04-03T01:51:16;99249.81;;;9.28;100.00
66176;BME280;52977;44.816;20.538;2023-04-03T01:53:42;99298.63;;;9.33;100.00
66176;BME280;52977;44.816;20.538;2023-04-03T01:56:09;99339.13;;;9.61;100.00
66176;BME280;52977;44.816;20.538;2023-04-03T01:58:35;99339.78;;;9.58;100.00
66176;BME280;52977;44.816;20.538;2023-04-03T02:01:02;99345.72;;;9.60;100.00
66176;BME280;52977;44.816;20.538;2023-04-03T02:03:28;99324.75;;;9.52;100.00
66176;BME280;52977;44.816;20.538;2023-04-03T02:05:54;99346.22;;;9.53;100.00
66176;BME280;52977;44.816;20.538;2023-04-03T02:08:21;99351.16;;;9.60;100.00
66176;BME280;52977;44.816;20.538;2023-04-03T02:10:48;99354.06;;;9.55;100.00
66176;BME280;52977;44.816;20.538;2023-04-03T02:13:15;99354.41;;;9.36;100.00
66176;BME280;52977;44.816;20.538;2023-04-03T02:15:41;99346.41;;;9.39;100.00
66176;BME280;52977;44.816;20.538;2023-04-03T02:18:08;99338.72;;;9.15;100.00
66176;BME280;52977;44.816;20.538;2023-04-03T02:20:35;99352.47;;;9.28;100.00
66176;BME280;52977;44.816;20.538;2023-04-03T02:23:01;99348.50;;;9.07;100.00
66176;BME280;52977;44.816;20.538;2023-04-03T02:25:29;99354.75;;;9.26;100.00
66176;BME280;52977;44.816;20.538;2023-04-03T02:27:56;99364.19;;;9.11;100.00
66176;BME280;52977;44.816;20.538;2023-04-03T02:30:22;99325.25;;;9.01;100.00
66176;BME280;52977;44.816;20.538;2023-04-03T02:32:48;99371.06;;;9.34;100.00
66176;BME280;52977;44.816;20.538;2023-04-03T02:35:15;99273.72;;;8.61;99.58
66176;BME280;52977;44.816;20.538;2023-04-03T02:37:41;99353.28;;;9.11;99.17
66176;BME280;52977;44.816;20.538;2023-04-03T02:40:08;99359.06;;;9.00;100.00
66176;BME280;52977;44.816;20.538;2023-04-03T02:42:35;99342.88;;;9.04;100.00
66176;BME280;52977;44.816;20.538;2023-04-03T02:45:02;99361.31;;;9.07;99.39
66176;BME280;52977;44.816;20.538;2023-04-03T02:47:29;99345.47;;;9.00;96.90
66176;BME280;52977;44.816;20.538;2023-04-03T02:49:55;99340.31;;;9.07;95.79
66176;BME280;52977;44.816;20.538;2023-04-03T02:52:21;99365.94;;;9.15;97.05
66176;BME280;52977;44.816;20.538;2023-04-03T02:54:49;99352.66;;;8.96;94.14
66176;BME280;52977;44.816;20.538;2023-04-03T02:57:15;99363.38;;;8.93;95.84
66176;BME280;52977;44.816;20.538;2023-04-03T02:59:42;99347.50;;;8.60;95.94
66176;BME280;52977;44.816;20.538;2023-04-03T03:02:10;99358.09;;;8.96;94.96
66176;BME280;52977;44.816;20.538;2023-04-03T03:04:36;99343.06;;;9.07;93.72
66176;BME280;52977;44.816;20.538;2023-04-03T03:07:02;99371.25;;;9.03;94.76
66176;BME280;52977;44.816;20.538;2023-04-03T03:09:29;99338.72;;;8.89;93.33
66176;BME280;52977;44.816;20.538;2023-04-03T03:11:56;99370.59;;;8.97;93.19
66176;BME280;52977;44.816;20.538;2023-04-03T03:14:22;99380.38;;;9.07;92.59
66176;BME280;52977;44.816;20.538;2023-04-03T03:16:48;99392.03;;;9.25;92.03
66176;BME280;52977;44.816;20.538;2023-04-03T03:19:15;99356.19;;;8.88;91.79
66176;BME280;52977;44.816;20.538;2023-04-03T03:21:41;99377.00;;;9.19;90.56
66176;BME280;52977;44.816;20.538;2023-04-03T03:24:06;99364.31;;;8.70;91.69
66176;BME280;52977;44.816;20.538;2023-04-03T03:26:32;99398.75;;;8.93;92.47
66176;BME280;52977;44.816;20.538;2023-04-03T03:28:58;99373.75;;;8.73;93.48
66176;BME280;52977;44.816;20.538;2023-04-03T03:31:25;99383.41;;;9.05;91.41
66176;BME280;52977;44.816;20.538;2023-04-03T03:33:51;99406.50;;;9.26;90.16
66176;BME280;52977;44.816;20.538;2023-04-03T03:36:18;99397.34;;;9.13;90.83
66176;BME280;52977;44.816;20.538;2023-04-03T03:38:44;99390.59;;;9.01;90.74
66176;BME280;52977;44.816;20.538;2023-04-03T03:41:10;99349.75;;;8.75;90.74
66176;BME280;52977;44.816;20.538;2023-04-03T03:43:36;99343.50;;;8.75;90.46
66176;BME280;52977;44.816;20.538;2023-04-03T03:46:04;99406.13;;;9.10;91.21
66176;BME280;52977;44.816;20.538;2023-04-03T03:48:30;99360.97;;;8.74;89.83
66176;BME280;52977;44.816;20.538;2023-04-03T03:50:56;99406.13;;;9.10;91.32
66176;BME280;52977;44.816;20.538;2023-04-03T03:53:26;99400.88;;;9.31;89.23
66176;BME280;52977;44.816;20.538;2023-04-03T03:55:55;99408.88;;;9.10;90.35
66176;BME280;52977;44.816;20.538;2023-04-03T03:58:24;99298.84;;;8.09;91.90
66176;BME280;52977;44.816;20.538;2023-04-03T04:00:51;99403.22;;;8.80;92.23
66176;BME280;52977;44.816;20.538;2023-04-03T04:03:17;99396.34;;;8.82;92.27
66176;BME280;52977;44.816;20.538;2023-04-03T04:05:46;99395.91;;;9.15;89.10
66176;BME280;52977;44.816;20.538;2023-04-03T04:08:12;99417.03;;;9.01;90.66
66176;BME280;52977;44.816;20.538;2023-04-03T04:10:38;99391.25;;;8.89;90.83
66176;BME280;52977;44.816;20.538;2023-04-03T04:13:05;99412.47;;;8.61;93.95
66176;BME280;52977;44.816;20.538;2023-04-03T04:15:31;99401.88;;;8.51;94.59
66176;BME280;52977;44.816;20.538;2023-04-03T04:17:57;99368.38;;;8.42;94.64
66176;BME280;52977;44.816;20.538;2023-04-03T04:20:24;99424.47;;;8.51;94.86
66176;BME280;52977;44.816;20.538;2023-04-03T04:22:50;99384.44;;;8.12;97.11
66176;BME280;52977;44.816;20.538;2023-04-03T04:25:17;99425.69;;;8.45;99.13
66176;BME280;52977;44.816;20.538;2023-04-03T04:27:43;99415.41;;;8.42;98.16
66176;BME280;52977;44.816;20.538;2023-04-03T04:30:13;99363.31;;;8.49;94.91
66176;BME280;52977;44.816;20.538;2023-04-03T04:32:39;99428.25;;;8.91;94.58
66176;BME280;52977;44.816;20.538;2023-04-03T04:35:06;99438.34;;;9.25;92.03
66176;BME280;52977;44.816;20.538;2023-04-03T04:37:36;99434.97;;;9.19;92.46
66176;BME280;52977;44.816;20.538;2023-04-03T04:40:03;99425.78;;;8.71;94.00
66176;BME280;52977;44.816;20.538;2023-04-03T04:42:30;99437.13;;;8.65;95.85
66176;BME280;52977;44.816;20.538;2023-04-03T04:44:56;99439.03;;;8.55;97.26
66176;BME280;52977;44.816;20.538;2023-04-03T04:47:23;99437.75;;;8.62;97.52
66176;BME280;52977;44.816;20.538;2023-04-03T04:49:49;99414.22;;;8.57;95.79
66176;BME280;52977;44.816;20.538;2023-04-03T04:52:17;99393.25;;;8.49;94.44
66176;BME280;52977;44.816;20.538;2023-04-03T04:54:44;99449.81;;;8.78;95.54
66176;BME280;52977;44.816;20.538;2023-04-03T04:57:11;99456.22;;;8.74;96.44
66176;BME280;52977;44.816;20.538;2023-04-03T04:59:37;99435.00;;;8.21;98.56
66176;BME280;52977;44.816;20.538;2023-04-03T05:02:06;99447.72;;;8.35;99.08
66176;BME280;52977;44.816;20.538;2023-04-03T05:04:32;99454.22;;;8.25;98.76
66176;BME280;52977;44.816;20.538;2023-04-03T05:07:05;99453.81;;;8.41;98.25
66176;BME280;52977;44.816;20.538;2023-04-03T05:09:34;99421.19;;;8.09;98.70
66176;BME280;52977;44.816;20.538;2023-04-03T05:12:01;99449.88;;;8.15;100.00
66176;BME280;52977;44.816;20.538;2023-04-03T05:14:34;99463.94;;;8.17;100.00
66176;BME280;52977;44.816;20.538;2023-04-03T05:17:05;99404.44;;;7.62;100.00
66176;BME280;52977;44.816;20.538;2023-04-03T05:19:35;99459.09;;;8.06;100.00
66176;BME280;52977;44.816;20.538;2023-04-03T05:22:02;99460.09;;;8.18;100.00
66176;BME280;52977;44.816;20.538;2023-04-03T05:24:29;99445.13;;;7.98;100.00
66176;BME280;52977;44.816;20.538;2023-04-03T05:26:55;99444.59;;;8.19;100.00
66176;BME280;52977;44.816;20.538;2023-04-03T05:29:22;99465.06;;;8.16;100.00
66176;BME280;52977;44.816;20.538;2023-04-03T05:31:50;99463.56;;;8.10;100.00
66176;BME280;52977;44.816;20.538;2023-04-03T05:34:16;99440.25;;;7.86;100.00
66176;BME280;52977;44.816;20.538;2023-04-03T05:36:44;99447.19;;;7.93;100.00
66176;BME280;52977;44.816;20.538;2023-04-03T05:39:14;99418.59;;;7.73;100.00
66176;BME280;52977;44.816;20.538;2023-04-03T05:41:42;99471.41;;;8.12;100.00
66176;BME280;52977;44.816;20.538;2023-04-03T05:44:09;99414.97;;;7.77;100.00
66176;BME280;52977;44.816;20.538;2023-04-03T05:46:35;99444.84;;;7.77;100.00
66176;BME280;52977;44.816;20.538;2023-04-03T05:49:04;99446.00;;;7.85;100.00
66176;BME280;52977;44.816;20.538;2023-04-03T05:51:35;99477.94;;;7.79;100.00
66176;BME280;52977;44.816;20.538;2023-04-03T05:54:19;99489.22;;;7.95;100.00
66176;BME280;52977;44.816;20.538;2023-04-03T05:56:46;99489.63;;;8.02;100.00
66176;BME280;52977;44.816;20.538;2023-04-03T05:59:13;99481.47;;;8.02;100.00
66176;BME280;52977;44.816;20.538;2023-04-03T06:01:39;99488.16;;;8.05;100.00
66176;BME280;52977;44.816;20.538;2023-04-03T06:04:05;99495.84;;;8.03;100.00
66176;BME280;52977;44.816;20.538;2023-04-03T06:06:51;99499.31;;;7.95;100.00
66176;BME280;52977;44.816;20.538;2023-04-03T06:09:20;99472.44;;;7.93;100.00
66176;BME280;52977;44.816;20.538;2023-04-03T06:11:46;99459.94;;;7.92;100.00
66176;BME280;52977;44.816;20.538;2023-04-03T06:14:13;99497.81;;;8.11;100.00
66176;BME280;52977;44.816;20.538;2023-04-03T06:16:40;99497.94;;;7.83;100.00
66176;BME280;52977;44.816;20.538;2023-04-03T06:19:10;99476.13;;;7.97;100.00
66176;BME280;52977;44.816;20.538;2023-04-03T06:21:40;99481.56;;;7.97;100.00
66176;BME280;52977;44.816;20.538;2023-04-03T06:24:07;99495.06;;;8.02;100.00
66176;BME280;52977;44.816;20.538;2023-04-03T06:26:34;99464.78;;;7.73;100.00
66176;BME280;52977;44.816;20.538;2023-04-03T06:29:00;99519.38;;;8.08;100.00
66176;BME280;52977;44.816;20.538;2023-04-03T06:31:27;99494.72;;;7.81;100.00
66176;BME280;52977;44.816;20.538;2023-04-03T06:33:53;99528.78;;;8.01;100.00
66176;BME280;52977;44.816;20.538;2023-04-03T06:36:20;99540.00;;;8.09;100.00
66176;BME280;52977;44.816;20.538;2023-04-03T06:38:47;99528.94;;;7.82;100.00
66176;BME280;52977;44.816;20.538;2023-04-03T06:41:13;99535.56;;;7.90;100.00
66176;BME280;52977;44.816;20.538;2023-04-03T06:43:40;99542.09;;;7.89;100.00
66176;BME280;52977;44.816;20.538;2023-04-03T06:46:06;99538.41;;;7.85;100.00
66176;BME280;52977;44.816;20.538;2023-04-03T06:48:32;99540.38;;;7.70;100.00
66176;BME280;52977;44.816;20.538;2023-04-03T06:50:58;99466.97;;;7.11;100.00
66176;BME280;52977;44.816;20.538;2023-04-03T06:53:24;99526.97;;;7.38;100.00
66176;BME280;52977;44.816;20.538;2023-04-03T06:55:50;99533.50;;;7.36;100.00
66176;BME280;52977;44.816;20.538;2023-04-03T06:58:17;99535.72;;;7.34;100.00
66176;BME280;52977;44.816;20.538;2023-04-03T07:00:43;99533.75;;;7.12;100.00
66176;BME280;52977;44.816;20.538;2023-04-03T07:03:09;99549.94;;;7.17;100.00
66176;BME280;52977;44.816;20.538;2023-04-03T07:05:35;99561.28;;;7.19;100.00
66176;BME280;52977;44.816;20.538;2023-04-03T07:08:01;99548.84;;;6.91;100.00
66176;BME280;52977;44.816;20.538;2023-04-03T07:10:27;99570.94;;;6.98;100.00
66176;BME280;52977;44.816;20.538;2023-04-03T07:12:53;99545.91;;;6.87;100.00
66176;BME280;52977;44.816;20.538;2023-04-03T07:15:20;99556.78;;;7.01;100.00
66176;BME280;52977;44.816;20.538;2023-04-03T07:17:46;99516.44;;;6.66;100.00
66176;BME280;52977;44.816;20.538;2023-04-03T07:20:12;99558.16;;;7.12;100.00
66176;BME280;52977;44.816;20.538;2023-04-03T07:22:38;99571.44;;;7.14;100.00
66176;BME280;52977;44.816;20.538;2023-04-03T07:25:06;99554.84;;;7.01;100.00
66176;BME280;52977;44.816;20.538;2023-04-03T07:27:33;99511.13;;;6.61;100.00
66176;BME280;52977;44.816;20.538;2023-04-03T07:30:00;99547.63;;;6.97;100.00
66176;BME280;52977;44.816;20.538;2023-04-03T07:32:26;99544.28;;;6.72;100.00
66176;BME280;52977;44.816;20.538;2023-04-03T07:34:52;99573.66;;;6.98;100.00
66176;BME280;52977;44.816;20.538;2023-04-03T07:37:19;99560.66;;;6.95;99.88
66176;BME280;52977;44.816;20.538;2023-04-03T07:39:46;99550.09;;;6.65;100.00
66176;BME280;52977;44.816;20.538;2023-04-03T07:42:12;99569.22;;;6.88;100.00
66176;BME280;52977;44.816;20.538;2023-04-03T07:44:38;99513.25;;;6.64;100.00
66176;BME280;52977;44.816;20.538;2023-04-03T07:47:05;99573.22;;;7.05;99.68
66176;BME280;52977;44.816;20.538;2023-04-03T07:49:30;99579.56;;;7.00;98.68
66176;BME280;52977;44.816;20.538;2023-04-03T07:51:56;99570.03;;;6.89;97.39
66176;BME280;52977;44.816;20.538;2023-04-03T07:54:23;99595.06;;;6.86;97.60
66176;BME280;52977;44.816;20.538;2023-04-03T07:56:49;99538.13;;;6.53;98.87
66176;BME280;52977;44.816;20.538;2023-04-03T07:59:15;99588.41;;;6.92;98.93
66176;BME280;52977;44.816;20.538;2023-04-03T08:01:41;99584.50;;;6.84;97.89
66176;BME280;52977;44.816;20.538;2023-04-03T08:04:08;99592.25;;;6.77;96.80
66176;BME280;52977;44.816;20.538;2023-04-03T08:06:34;99575.75;;;6.73;95.61
66176;BME280;52977;44.816;20.538;2023-04-03T08:09:04;99545.66;;;6.56;96.49
66176;BME280;52977;44.816;20.538;2023-04-03T08:11:30;99578.16;;;6.75;96.95
66176;BME280;52977;44.816;20.538;2023-04-03T08:13:56;99540.69;;;6.63;95.24
66176;BME280;52977;44.816;20.538;2023-04-03T08:16:23;99586.81;;;7.05;94.63
66176;BME280;52977;44.816;20.538;2023-04-03T08:18:53;99456.84;;;6.06;93.54
66176;BME280;52977;44.816;20.538;2023-04-03T08:21:19;99531.72;;;6.62;93.64
66176;BME280;52977;44.816;20.538;2023-04-03T08:23:48;99591.53;;;7.13;93.36
66176;BME280;52977;44.816;20.538;2023-04-03T08:26:16;99596.38;;;7.16;92.35
66176;BME280;52977;44.816;20.538;2023-04-03T08:28:43;99503.94;;;6.38;93.74
66176;BME280;52977;44.816;20.538;2023-04-03T08:31:12;99602.78;;;6.78;96.52
66176;BME280;52977;44.816;20.538;2023-04-03T08:33:39;99596.53;;;6.78;100.00
66176;BME280;52977;44.816;20.538;2023-04-03T08:36:17;99609.22;;;6.82;97.79
66176;BME280;52977;44.816;20.538;2023-04-03T08:38:45;99609.47;;;6.53;97.64
66176;BME280;52977;44.816;20.538;2023-04-03T08:41:20;99601.53;;;6.57;97.96
66176;BME280;52977;44.816;20.538;2023-04-03T08:49:32;99599.84;;;6.75;96.38
66176;BME280;52977;44.816;20.538;2023-04-03T08:52:03;99596.66;;;6.87;94.48
66176;BME280;52977;44.816;20.538;2023-04-03T08:54:41;99521.84;;;6.39;94.57
66176;BME280;52977;44.816;20.538;2023-04-03T08:57:14;99584.59;;;6.93;92.31
66176;BME280;52977;44.816;20.538;2023-04-03T08:59:41;99560.78;;;6.76;89.57
66176;BME280;52977;44.816;20.538;2023-04-03T09:02:30;99593.25;;;6.81;90.46
66176;BME280;52977;44.816;20.538;2023-04-03T09:04:58;99576.72;;;6.63;92.75
66176;BME280;52977;44.816;20.538;2023-04-03T09:07:33;99541.94;;;6.52;90.73
66176;BME280;52977;44.816;20.538;2023-04-03T09:10:03;99599.41;;;7.00;91.98
66176;BME280;52977;44.816;20.538;2023-04-03T09:12:37;99583.38;;;6.85;91.86
66176;BME280;52977;44.816;20.538;2023-04-03T09:15:20;99597.38;;;7.06;91.83
66176;BME280;52977;44.816;20.538;2023-04-03T09:18:00;99520.47;;;6.97;94.63
66176;BME280;52977;44.816;20.538;2023-04-03T09:21:00;99592.81;;;7.94;88.02
66176;BME280;52977;44.816;20.538;2023-04-03T09:23:34;99453.44;;;6.97;86.30
66176;BME280;52977;44.816;20.538;2023-04-03T09:26:11;99594.44;;;7.58;88.01
66176;BME280;52977;44.816;20.538;2023-04-03T09:28:40;99603.69;;;7.57;85.94
66176;BME280;52977;44.816;20.538;2023-04-03T09:31:26;99592.72;;;7.48;86.04
66176;BME280;52977;44.816;20.538;2023-04-03T09:33:58;99593.81;;;7.61;85.91
66176;BME280;52977;44.816;20.538;2023-04-03T09:39:14;99598.88;;;7.54;87.82
66176;BME280;52977;44.816;20.538;2023-04-03T09:41:55;99573.50;;;7.45;85.79
66176;BME280;52977;44.816;20.538;2023-04-03T09:44:36;99590.19;;;7.52;84.93
66176;BME280;52977;44.816;20.538;2023-04-03T09:47:24;99558.47;;;7.25;83.93
66176;BME280;52977;44.816;20.538;2023-04-03T09:49:52;99595.16;;;7.50;84.95
66176;BME280;52977;44.816;20.538;2023-04-03T09:52:35;99537.44;;;7.30;84.63
66176;BME280;52977;44.816;20.538;2023-04-03T09:55:14;99579.22;;;7.57;85.20
66176;BME280;52977;44.816;20.538;2023-04-03T09:57:41;99571.28;;;7.61;85.59
66176;BME280;52977;44.816;20.538;2023-04-03T10:00:21;99581.50;;;7.78;84.99
66176;BME280;52977;44.816;20.538;2023-04-03T10:02:56;99586.94;;;7.78;86.11
66176;BME280;52977;44.816;20.538;2023-04-03T10:05:37;99587.84;;;7.87;86.00
66176;BME280;52977;44.816;20.538;2023-04-03T10:10:47;99574.72;;;7.89;85.31
66176;BME280;52977;44.816;20.538;2023-04-03T10:13:19;99577.59;;;8.07;87.25
66176;BME280;52977;44.816;20.538;2023-04-03T10:16:34;99591.41;;;7.96;87.93
66176;BME280;52977;44.816;20.538;2023-04-03T10:19:11;99588.31;;;8.12;88.12
66176;BME280;52977;44.816;20.538;2023-04-03T10:21:49;99587.28;;;7.99;84.56
66176;BME280;52977;44.816;20.538;2023-04-03T10:27:14;99560.72;;;7.59;84.70
66176;BME280;52977;44.816;20.538;2023-04-03T10:32:43;99568.84;;;7.73;84.81
66176;BME280;52977;44.816;20.538;2023-04-03T10:35:18;99561.72;;;7.63;84.20
66176;BME280;52977;44.816;20.538;2023-04-03T10:40:28;99519.47;;;7.57;83.43
66176;BME280;52977;44.816;20.538;2023-04-03T10:46:02;99551.88;;;7.90;84.28
66176;BME280;52977;44.816;20.538;2023-04-03T10:51:42;99533.16;;;8.11;84.60
66176;BME280;52977;44.816;20.538;2023-04-03T10:54:25;99471.81;;;7.74;84.27
66176;BME280;52977;44.816;20.538;2023-04-03T10:56:56;99514.56;;;8.04;84.83
66176;BME280;52977;44.816;20.538;2023-04-03T11:01:56;99515.84;;;8.30;84.34
66176;BME280;52977;44.816;20.538;2023-04-03T11:04:24;99512.00;;;8.31;84.07
66176;BME280;52977;44.816;20.538;2023-04-03T11:07:00;99510.03;;;8.45;84.82
66176;BME280;52977;44.816;20.538;2023-04-03T11:09:33;99510.34;;;8.75;85.17
66176;BME280;52977;44.816;20.538;2023-04-03T11:12:09;99504.38;;;8.73;83.01
66176;BME280;52977;44.816;20.538;2023-04-03T11:14:38;99462.88;;;8.27;78.57
66176;BME280;52977;44.816;20.538;2023-04-03T11:22:27;99481.63;;;8.69;79.55
66176;BME280;52977;44.816;20.538;2023-04-03T11:27:40;99455.25;;;8.78;78.25
66176;BME280;52977;44.816;20.538;2023-04-03T11:30:15;99497.09;;;9.00;79.03
66176;BME280;52977;44.816;20.538;2023-04-03T11:35:43;99421.63;;;8.34;77.37
66176;BME280;52977;44.816;20.538;2023-04-03T11:38:17;99498.63;;;8.75;78.33
66176;BME280;52977;44.816;20.538;2023-04-03T11:40:46;99441.28;;;8.31;78.87
66176;BME280;52977;44.816;20.538;2023-04-03T11:43:31;99486.41;;;8.63;80.14
66176;BME280;52977;44.816;20.538;2023-04-03T11:46:01;99459.06;;;8.60;80.85
66176;BME280;52977;44.816;20.538;2023-04-03T11:50:56;99467.03;;;8.56;82.31
66176;BME280;52977;44.816;20.538;2023-04-03T11:56:00;99465.34;;;8.78;80.01
66176;BME280;52977;44.816;20.538;2023-04-03T11:58:31;99486.50;;;8.89;79.16
66176;BME280;52977;44.816;20.538;2023-04-03T12:01:10;99467.31;;;8.95;79.54
66176;BME280;52977;44.816;20.538;2023-04-03T12:16:24;99474.41;;;9.22;78.98
66176;BME280;52977;44.816;20.538;2023-04-03T12:21:20;99408.47;;;8.67;77.24
66176;BME280;52977;44.816;20.538;2023-04-03T12:24:23;99472.16;;;9.15;77.55
66176;BME280;52977;44.816;20.538;2023-04-03T12:27:16;99472.19;;;9.24;77.38
66176;BME280;52977;44.816;20.538;2023-04-03T12:29:50;99421.03;;;9.03;76.98
66176;BME280;52977;44.816;20.538;2023-04-03T12:35:27;99474.09;;;9.50;77.74
66176;BME280;52977;44.816;20.538;2023-04-03T12:46:28;99464.97;;;9.46;77.56
66176;BME280;52977;44.816;20.538;2023-04-03T12:48:57;99453.59;;;9.44;78.78
66176;BME280;52977;44.816;20.538;2023-04-03T12:51:37;99448.28;;;9.47;78.93
66176;BME280;52977;44.816;20.538;2023-04-03T12:56:42;99443.34;;;9.49;78.15
66176;BME280;52977;44.816;20.538;2023-04-03T12:59:22;99398.94;;;9.05;79.13
66176;BME280;52977;44.816;20.538;2023-04-03T13:02:02;99417.69;;;9.24;77.98
66176;BME280;52977;44.816;20.538;2023-04-03T13:04:30;99440.94;;;9.48;79.25
66176;BME280;52977;44.816;20.538;2023-04-03T13:06:57;99438.22;;;9.56;78.33
66176;BME280;52977;44.816;20.538;2023-04-03T13:09:28;99439.00;;;9.57;76.77
66176;BME280;52977;44.816;20.538;2023-04-03T13:12:03;99455.69;;;9.47;77.43
66176;BME280;52977;44.816;20.538;2023-04-03T13:14:34;99438.38;;;9.34;78.02
66176;BME280;52977;44.816;20.538;2023-04-03T13:17:16;99443.34;;;9.40;78.72
66176;BME280;52977;44.816;20.538;2023-04-03T13:19:44;99447.19;;;9.39;80.04
66176;BME280;52977;44.816;20.538;2023-04-03T13:22:36;99345.44;;;8.83;79.81
66176;BME280;52977;44.816;20.538;2023-04-03T13:25:11;99396.88;;;9.11;82.03
66176;BME280;52977;44.816;20.538;2023-04-03T13:27:39;99420.56;;;9.28;84.03
66176;BME280;52977;44.816;20.538;2023-04-03T13:30:38;99418.50;;;9.33;83.99
66176;BME280;52977;44.816;20.538;2023-04-03T13:33:17;99415.78;;;9.51;82.90
66176;BME280;52977;44.816;20.538;2023-04-03T13:35:45;99407.13;;;9.57;81.10
66176;BME280;52977;44.816;20.538;2023-04-03T13:40:55;99303.31;;;9.06;77.91
66176;BME280;52977;44.816;20.538;2023-04-03T13:43:27;99350.72;;;9.40;77.94
66176;BME280;52977;44.816;20.538;2023-04-03T13:56:32;99364.97;;;9.29;82.12
66176;BME280;52977;44.816;20.538;2023-04-03T14:04:21;99386.72;;;9.72;81.39
66176;BME280;52977;44.816;20.538;2023-04-03T14:06:49;99368.97;;;9.57;81.52
66176;BME280;52977;44.816;20.538;2023-04-03T14:09:17;99378.44;;;9.60;81.84
66176;BME280;52977;44.816;20.538;2023-04-03T14:11:44;99322.06;;;9.26;81.23
66176;BME280;52977;44.816;20.538;2023-04-03T14:14:19;99356.63;;;9.51;80.00
66176;BME280;52977;44.816;20.538;2023-04-03T14:16:50;99375.50;;;9.65;77.50
66176;BME280;52977;44.816;20.538;2023-04-03T14:19:22;99381.94;;;9.61;78.15
66176;BME280;52977;44.816;20.538;2023-04-03T14:21:49;99374.13;;;9.50;77.06
66176;BME280;52977;44.816;20.538;2023-04-03T14:24:16;99374.09;;;9.41;75.54
66176;BME280;52977;44.816;20.538;2023-04-03T14:26:43;99292.91;;;8.91;76.15
66176;BME280;52977;44.816;20.538;2023-04-03T14:29:10;99381.31;;;9.46;76.54
66176;BME280;52977;44.816;20.538;2023-04-03T14:31:37;99328.78;;;9.19;76.49
66176;BME280;52977;44.816;20.538;2023-04-03T14:34:03;99377.63;;;9.51;76.03
66176;BME280;52977;44.816;20.538;2023-04-03T14:36:29;99383.41;;;9.49;75.29
66176;BME280;52977;44.816;20.538;2023-04-03T14:38:55;99374.25;;;9.54;73.78
66176;BME280;52977;44.816;20.538;2023-04-03T14:41:23;99383.88;;;9.51;74.06
66176;BME280;52977;44.816;20.538;2023-04-03T14:43:49;99363.38;;;9.36;73.82
66176;BME280;52977;44.816;20.538;2023-04-03T14:46:21;99368.84;;;9.36;73.41